sensor_id;sensor_type;location;lat;lon;timestamp;pressure;altitude;pressure_sealevel;temperature;humidity
6425;BME280;12193;42.642;23.384;2022-11-12T00:01:41;95807.75;;;9.69;100.00
6425;BME280;12193;42.642;23.384;2022-11-12T00:04:13;95813.44;;;9.80;100.00
6425;BME280;12193;42.642;23.384;2022-11-12T00:06:42;95805.19;;;9.77;100.00
6425;BME280;12193;42.642;23.384;2022-11-12T00:09:11;95784.72;;;9.74;100.00
6425;BME280;12193;42.642;23.384;2022-11-12T00:11:41;95792.38;;;9.67;100.00
6425;BME280;12193;42.642;23.384;2022-11-12T00:14:10;95791.41;;;9.76;100.00
6425;BME280;12193;42.642;23.384;2022-11-12T00:16:39;95789.09;;;9.81;100.00
6425;BME280;12193;42.642;23.384;2022-11-12T00:19:08;95786.69;;;9.88;100.00
6425;BME280;12193;42.642;23.384;2022-11-12T00:21:40;95796.75;;;9.83;100.00
6425;BME280;12193;42.642;23.384;2022-11-12T00:24:10;95791.38;;;9.84;100.00
6425;BME280;12193;42.642;23.384;2022-11-12T00:26:39;95798.19;;;9.93;100.00
6425;BME280;12193;42.642;23.384;2022-11-12T00:29:08;95794.75;;;9.93;100.00
6425;BME280;12193;42.642;23.384;2022-11-12T00:31:37;95799.47;;;9.89;100.00
6425;BME280;12193;42.642;23.384;2022-11-12T00:34:07;95798.50;;;9.90;100.00
6425;BME280;12193;42.642;23.384;2022-11-12T00:36:36;95798.66;;;9.89;100.00
6425;BME280;12193;42.642;23.384;2022-11-12T00:39:08;95793.31;;;9.82;100.00
6425;BME280;12193;42.642;23.384;2022-11-12T00:41:37;95791.56;;;9.67;100.00
6425;BME280;12193;42.642;23.384;2022-11-12T00:44:07;95796.25;;;9.71;100.00
6425;BME280;12193;42.642;23.384;2022-11-12T00:46:36;95795.47;;;9.63;100.00
6425;BME280;12193;42.642;23.384;2022-11-12T00:49:05;95797.22;;;9.70;100.00
6425;BME280;12193;42.642;23.384;2022-11-12T00:51:34;95792.84;;;9.71;100.00
6425;BME280;12193;42.642;23.384;2022-11-12T00:54:04;95801.78;;;9.68;100.00
6425;BME280;12193;42.642;23.384;2022-11-12T00:56:36;95792.69;;;9.72;100.00
6425;BME280;12193;42.642;23.384;2022-11-12T00:59:05;95794.31;;;9.73;100.00
6425;BME280;12193;42.642;23.384;2022-11-12T01:01:35;95789.13;;;9.73;100.00
6425;BME280;12193;42.642;23.384;2022-11-12T01:04:04;95770.13;;;9.73;100.00
6425;BME280;12193;42.642;23.384;2022-11-12T04:08:30;95760.09;;;8.33;100.00
6425;BME280;12193;42.642;23.384;2022-11-12T04:11:08;95754.56;;;8.36;100.00
6425;BME280;12193;42.642;23.384;2022-11-12T04:13:38;95760.09;;;8.41;100.00
6425;BME280;12193;42.642;23.384;2022-11-12T04:16:09;95751.22;;;8.10;100.00
6425;BME280;12193;42.642;23.384;2022-11-12T04:18:53;95755.13;;;8.14;100.00
6425;BME280;12193;42.642;23.384;2022-11-12T04:21:37;95752.84;;;8.11;100.00
6425;BME280;12193;42.642;23.384;2022-11-12T04:24:24;95745.41;;;8.16;100.00
6425;BME280;12193;42.642;23.384;2022-11-12T04:27:08;95742.84;;;7.91;100.00
6425;BME280;12193;42.642;23.384;2022-11-12T04:29:37;95741.53;;;7.87;100.00
6425;BME280;12193;42.642;23.384;2022-11-12T04:32:19;95746.81;;;7.77;100.00
6425;BME280;12193;42.642;23.384;2022-11-12T04:34:48;95739.28;;;7.92;100.00
6425;BME280;12193;42.642;23.384;2022-11-12T04:37:18;95744.22;;;8.03;100.00
6425;BME280;12193;42.642;23.384;2022-11-12T04:39:50;95738.19;;;7.94;100.00
6425;BME280;12193;42.642;23.384;2022-11-12T04:42:19;95742.16;;;7.81;100.00
6425;BME280;12193;42.642;23.384;2022-11-12T04:45:02;95738.56;;;7.74;100.00
6425;BME280;12193;42.642;23.384;2022-11-12T04:47:33;95742.97;;;7.81;100.00
6425;BME280;12193;42.642;23.384;2022-11-12T04:50:04;95744.31;;;7.68;100.00
6425;BME280;12193;42.642;23.384;2022-11-12T04:52:34;95746.09;;;7.93;100.00
6425;BME280;12193;42.642;23.384;2022-11-12T04:55:07;95744.94;;;7.87;100.00
6425;BME280;12193;42.642;23.384;2022-11-12T04:57:37;95749.69;;;8.00;100.00
6425;BME280;12193;42.642;23.384;2022-11-12T05:00:09;95753.13;;;8.08;100.00
6425;BME280;12193;42.642;23.384;2022-11-12T05:02:39;95759.63;;;8.12;100.00
6425;BME280;12193;42.642;23.384;2022-11-12T05:05:08;95759.94;;;8.09;100.00
6425;BME280;12193;42.642;23.384;2022-11-12T05:07:37;95756.31;;;7.94;100.00
6425;BME280;12193;42.642;23.384;2022-11-12T05:10:10;95762.41;;;7.85;100.00
6425;BME280;12193;42.642;23.384;2022-11-12T05:12:39;95767.66;;;8.01;100.00
6425;BME280;12193;42.642;23.384;2022-11-12T05:15:09;95773.66;;;8.02;100.00
6425;BME280;12193;42.642;23.384;2022-11-12T05:17:41;95769.63;;;8.07;100.00
6425;BME280;12193;42.642;23.384;2022-11-12T05:20:12;95773.91;;;8.16;100.00
6425;BME280;12193;42.642;23.384;2022-11-12T05:22:42;95776.56;;;8.07;100.00
6425;BME280;12193;42.642;23.384;2022-11-12T05:25:14;95775.31;;;8.11;100.00
6425;BME280;12193;42.642;23.384;2022-11-12T05:27:43;95780.19;;;8.14;100.00
6425;BME280;12193;42.642;23.384;2022-11-12T05:30:13;95786.53;;;8.19;100.00
6425;BME280;12193;42.642;23.384;2022-11-12T05:32:42;95780.34;;;8.12;100.00
6425;BME280;12193;42.642;23.384;2022-11-12T05:35:12;95782.78;;;8.14;100.00
6425;BME280;12193;42.642;23.384;2022-11-12T05:37:42;95787.97;;;8.14;100.00
6425;BME280;12193;42.642;23.384;2022-11-12T05:40:14;95789.97;;;8.20;100.00
6425;BME280;12193;42.642;23.384;2022-11-12T05:42:44;95784.78;;;8.20;100.00
6425;BME280;12193;42.642;23.384;2022-11-12T05:45:13;95791.31;;;8.31;100.00
6425;BME280;12193;42.642;23.384;2022-11-12T05:47:43;95786.97;;;8.40;100.00
6425;BME280;12193;42.642;23.384;2022-11-12T05:50:13;95795.00;;;8.70;100.00
6425;BME280;12193;42.642;23.384;2022-11-12T05:52:43;95788.56;;;8.90;100.00
6425;BME280;12193;42.642;23.384;2022-11-12T05:55:15;95788.47;;;9.16;98.97
6425;BME280;12193;42.642;23.384;2022-11-12T05:57:45;95793.34;;;9.42;97.20
6425;BME280;12193;42.642;23.384;2022-11-12T06:00:15;95800.97;;;9.52;96.58
6425;BME280;12193;42.642;23.384;2022-11-12T06:02:45;95791.72;;;9.73;95.07
6425;BME280;12193;42.642;23.384;2022-11-12T06:05:14;95794.13;;;9.75;94.59
6425;BME280;12193;42.642;23.384;2022-11-12T06:07:44;95798.63;;;10.21;91.82
6425;BME280;12193;42.642;23.384;2022-11-12T06:10:16;95807.75;;;10.63;90.01
6425;BME280;12193;42.642;23.384;2022-11-12T06:12:45;95801.66;;;10.78;88.04
6425;BME280;12193;42.642;23.384;2022-11-12T06:15:15;95805.31;;;11.22;85.17
6425;BME280;12193;42.642;23.384;2022-11-12T06:17:44;95807.47;;;11.86;79.40
6425;BME280;12193;42.642;23.384;2022-11-12T06:20:14;95812.13;;;11.90;77.09
6425;BME280;12193;42.642;23.384;2022-11-12T06:22:43;95816.28;;;12.14;75.13
6425;BME280;12193;42.642;23.384;2022-11-12T06:25:15;95809.22;;;12.65;74.51
6425;BME280;12193;42.642;23.384;2022-11-12T06:27:44;95807.06;;;12.98;71.84
6425;BME280;12193;42.642;23.384;2022-11-12T06:30:13;95809.25;;;13.15;70.77
6425;BME280;12193;42.642;23.384;2022-11-12T06:32:44;95812.06;;;12.99;71.98
6425;BME280;12193;42.642;23.384;2022-11-12T06:35:15;95813.09;;;12.84;70.52
6425;BME280;12193;42.642;23.384;2022-11-12T06:37:45;95808.38;;;12.07;72.84
6425;BME280;12193;42.642;23.384;2022-11-12T06:40:17;95809.91;;;11.65;73.80
6425;BME280;12193;42.642;23.384;2022-11-12T06:42:47;95814.31;;;10.81;76.11
6425;BME280;12193;42.642;23.384;2022-11-12T06:45:16;95809.34;;;10.18;79.37
6425;BME280;12193;42.642;23.384;2022-11-12T06:47:45;95827.72;;;9.44;83.80
6425;BME280;12193;42.642;23.384;2022-11-12T06:50:15;95831.28;;;9.59;84.39
6425;BME280;12193;42.642;23.384;2022-11-12T06:52:44;95827.38;;;9.39;84.49
6425;BME280;12193;42.642;23.384;2022-11-12T06:55:16;95825.00;;;9.46;85.73
6425;BME280;12193;42.642;23.384;2022-11-12T06:57:50;95826.25;;;9.50;84.01
6425;BME280;12193;42.642;23.384;2022-11-12T07:00:19;95824.19;;;9.53;84.01
6425;BME280;12193;42.642;23.384;2022-11-12T07:02:49;95823.69;;;9.58;83.70
6425;BME280;12193;42.642;23.384;2022-11-12T07:05:19;95818.81;;;9.71;83.23
6425;BME280;12193;42.642;23.384;2022-11-12T07:07:48;95807.75;;;9.69;83.36
6425;BME280;12193;42.642;23.384;2022-11-12T07:10:20;95820.75;;;9.53;84.40
6425;BME280;12193;42.642;23.384;2022-11-12T07:12:52;95811.53;;;9.74;83.63
6425;BME280;12193;42.642;23.384;2022-11-12T07:15:22;95811.66;;;9.73;83.04
6425;BME280;12193;42.642;23.384;2022-11-12T07:17:51;95813.63;;;9.87;82.05
6425;BME280;12193;42.642;23.384;2022-11-12T07:20:20;95814.16;;;10.83;78.97
6425;BME280;12193;42.642;23.384;2022-11-12T07:22:50;95811.38;;;11.15;77.09
6425;BME280;12193;42.642;23.384;2022-11-12T07:25:22;95809.84;;;11.28;76.91
6425;BME280;12193;42.642;23.384;2022-11-12T07:27:52;95823.88;;;11.41;75.19
6425;BME280;12193;42.642;23.384;2022-11-12T07:30:21;95810.03;;;10.96;76.77
6425;BME280;12193;42.642;23.384;2022-11-12T07:32:50;95824.28;;;11.61;75.05
6425;BME280;12193;42.642;23.384;2022-11-12T07:35:19;95818.09;;;11.32;74.05
6425;BME280;12193;42.642;23.384;2022-11-12T07:37:49;95819.84;;;11.39;74.66
6425;BME280;12193;42.642;23.384;2022-11-12T07:40:21;95824.56;;;10.83;76.49
6425;BME280;12193;42.642;23.384;2022-11-12T07:42:51;95815.75;;;11.14;75.16
6425;BME280;12193;42.642;23.384;2022-11-12T07:45:20;95821.50;;;10.71;76.47
6425;BME280;12193;42.642;23.384;2022-11-12T07:47:49;95816.91;;;10.51;77.89
6425;BME280;12193;42.642;23.384;2022-11-12T07:50:18;95805.59;;;10.20;78.56
6425;BME280;12193;42.642;23.384;2022-11-12T07:52:47;95820.72;;;9.93;79.96
6425;BME280;12193;42.642;23.384;2022-11-12T07:55:17;95823.69;;;9.42;81.91
6425;BME280;12193;42.642;23.384;2022-11-12T07:57:49;95814.44;;;9.47;81.88
6425;BME280;12193;42.642;23.384;2022-11-12T08:00:19;95827.22;;;9.49;81.73
6425;BME280;12193;42.642;23.384;2022-11-12T08:02:48;95827.81;;;8.95;83.68
6425;BME280;12193;42.642;23.384;2022-11-12T08:05:17;95829.59;;;9.03;85.24
6425;BME280;12193;42.642;23.384;2022-11-12T08:07:47;95834.34;;;9.31;84.38
6425;BME280;12193;42.642;23.384;2022-11-12T08:10:16;95831.44;;;9.34;84.23
6425;BME280;12193;42.642;23.384;2022-11-12T08:12:46;95829.81;;;9.33;84.25
6425;BME280;12193;42.642;23.384;2022-11-12T08:15:18;95832.09;;;9.36;84.26
6425;BME280;12193;42.642;23.384;2022-11-12T08:17:47;95842.97;;;9.39;83.84
6425;BME280;12193;42.642;23.384;2022-11-12T08:20:16;95837.47;;;9.34;84.53
6425;BME280;12193;42.642;23.384;2022-11-12T08:22:46;95843.19;;;8.89;84.35
6425;BME280;12193;42.642;23.384;2022-11-12T08:25:16;95841.88;;;8.85;85.68
6425;BME280;12193;42.642;23.384;2022-11-12T08:27:45;95838.34;;;8.94;85.63
6425;BME280;12193;42.642;23.384;2022-11-12T08:30:17;95844.69;;;9.07;85.31
6425;BME280;12193;42.642;23.384;2022-11-12T08:32:47;95844.09;;;9.21;84.54
6425;BME280;12193;42.642;23.384;2022-11-12T08:35:16;95844.44;;;9.42;84.13
6425;BME280;12193;42.642;23.384;2022-11-12T08:37:45;95842.81;;;9.41;83.08
6425;BME280;12193;42.642;23.384;2022-11-12T08:40:14;95842.03;;;9.56;82.20
6425;BME280;12193;42.642;23.384;2022-11-12T08:42:44;95847.03;;;9.50;82.49
6425;BME280;12193;42.642;23.384;2022-11-12T08:45:13;95845.25;;;9.66;82.69
6425;BME280;12193;42.642;23.384;2022-11-12T08:47:45;95852.75;;;9.77;82.21
6425;BME280;12193;42.642;23.384;2022-11-12T08:50:15;95841.69;;;9.83;81.86
6425;BME280;12193;42.642;23.384;2022-11-12T08:52:44;95859.22;;;9.73;81.67
6425;BME280;12193;42.642;23.384;2022-11-12T08:55:13;95842.19;;;9.79;81.60
6425;BME280;12193;42.642;23.384;2022-11-12T08:57:43;95844.44;;;9.98;80.95
6425;BME280;12193;42.642;23.384;2022-11-12T09:00:14;95854.50;;;9.77;81.57
6425;BME280;12193;42.642;23.384;2022-11-12T09:02:46;95835.19;;;9.95;80.80
6425;BME280;12193;42.642;23.384;2022-11-12T09:05:15;95834.22;;;9.96;80.83
6425;BME280;12193;42.642;23.384;2022-11-12T09:07:44;95837.09;;;10.25;79.84
6425;BME280;12193;42.642;23.384;2022-11-12T09:10:14;95842.44;;;10.32;79.84
6425;BME280;12193;42.642;23.384;2022-11-12T09:12:43;95832.56;;;10.35;79.14
6425;BME280;12193;42.642;23.384;2022-11-12T09:15:12;95831.00;;;10.95;76.93
6425;BME280;12193;42.642;23.384;2022-11-12T09:17:45;95834.03;;;10.76;76.65
6425;BME280;12193;42.642;23.384;2022-11-12T09:20:15;95837.63;;;10.75;77.53
6425;BME280;12193;42.642;23.384;2022-11-12T09:22:44;95833.72;;;10.71;77.00
6425;BME280;12193;42.642;23.384;2022-11-12T09:25:13;95837.28;;;10.16;79.45
6425;BME280;12193;42.642;23.384;2022-11-12T09:27:43;95837.16;;;10.01;80.46
6425;BME280;12193;42.642;23.384;2022-11-12T09:30:13;95843.47;;;9.99;80.54
6425;BME280;12193;42.642;23.384;2022-11-12T09:32:45;95848.53;;;9.76;81.40
6425;BME280;12193;42.642;23.384;2022-11-12T09:35:15;95853.06;;;9.74;82.08
6425;BME280;12193;42.642;23.384;2022-11-12T09:37:44;95843.31;;;9.60;83.04
6425;BME280;12193;42.642;23.384;2022-11-12T09:40:17;95837.47;;;9.74;82.87
6425;BME280;12193;42.642;23.384;2022-11-12T09:42:50;95848.50;;;9.60;84.04
6425;BME280;12193;42.642;23.384;2022-11-12T09:45:25;95838.75;;;9.38;82.49
6425;BME280;12193;42.642;23.384;2022-11-12T09:48:01;95843.94;;;9.46;80.84
6425;BME280;12193;42.642;23.384;2022-11-12T09:50:38;95844.78;;;9.47;80.92
6425;BME280;12193;42.642;23.384;2022-11-12T09:53:13;95842.66;;;9.66;80.94
6425;BME280;12193;42.642;23.384;2022-11-12T09:55:47;95841.69;;;9.51;81.65
6425;BME280;12193;42.642;23.384;2022-11-12T09:58:18;95838.59;;;9.40;81.85
6425;BME280;12193;42.642;23.384;2022-11-12T10:00:54;95844.59;;;9.32;80.81
6425;BME280;12193;42.642;23.384;2022-11-12T10:03:35;95849.63;;;9.42;81.11
6425;BME280;12193;42.642;23.384;2022-11-12T10:06:10;95844.75;;;9.71;80.45
6425;BME280;12193;42.642;23.384;2022-11-12T10:08:47;95849.97;;;9.71;80.02
6425;BME280;12193;42.642;23.384;2022-11-12T10:11:35;95847.03;;;9.74;78.16
6425;BME280;12193;42.642;23.384;2022-11-12T10:14:34;95839.41;;;9.88;77.89
6425;BME280;12193;42.642;23.384;2022-11-12T10:17:09;95831.44;;;9.98;77.23
6425;BME280;12193;42.642;23.384;2022-11-12T10:19:48;95832.13;;;10.08;77.18
6425;BME280;12193;42.642;23.384;2022-11-12T10:22:31;95835.19;;;10.19;76.69
6425;BME280;12193;42.642;23.384;2022-11-12T10:25:13;95835.84;;;9.97;76.94
6425;BME280;12193;42.642;23.384;2022-11-12T10:27:43;95833.91;;;9.67;78.49
6425;BME280;12193;42.642;23.384;2022-11-12T10:30:16;95837.97;;;9.78;78.78
6425;BME280;12193;42.642;23.384;2022-11-12T10:32:46;95831.31;;;9.91;79.12
6425;BME280;12193;42.642;23.384;2022-11-12T10:35:22;95832.75;;;9.94;79.74
6425;BME280;12193;42.642;23.384;2022-11-12T10:37:56;95828.06;;;9.73;81.44
6425;BME280;12193;42.642;23.384;2022-11-12T10:40:30;95842.16;;;9.55;83.68
6425;BME280;12193;42.642;23.384;2022-11-12T10:43:02;95843.78;;;9.56;84.39
6425;BME280;12193;42.642;23.384;2022-11-12T10:45:31;95838.28;;;9.59;83.37
6425;BME280;12193;42.642;23.384;2022-11-12T10:48:04;95842.81;;;9.57;82.78
6425;BME280;12193;42.642;23.384;2022-11-12T10:50:39;95838.28;;;9.59;83.08
6425;BME280;12193;42.642;23.384;2022-11-12T10:53:11;95839.41;;;9.40;84.01
6425;BME280;12193;42.642;23.384;2022-11-12T10:55:55;95839.25;;;9.42;86.91
6425;BME280;12193;42.642;23.384;2022-11-12T10:58:25;95835.53;;;9.52;88.03
6425;BME280;12193;42.642;23.384;2022-11-12T11:01:11;95837.13;;;9.61;87.74
6425;BME280;12193;42.642;23.384;2022-11-12T11:03:44;95834.25;;;9.56;86.73
6425;BME280;12193;42.642;23.384;2022-11-12T11:06:21;95835.47;;;9.21;86.12
6425;BME280;12193;42.642;23.384;2022-11-12T11:09:06;95835.31;;;9.06;87.11
6425;BME280;12193;42.642;23.384;2022-11-12T11:11:36;95835.47;;;9.21;87.37
6425;BME280;12193;42.642;23.384;2022-11-12T11:14:24;95827.72;;;9.28;87.26
6425;BME280;12193;42.642;23.384;2022-11-12T11:16:56;95830.97;;;9.46;86.90
6425;BME280;12193;42.642;23.384;2022-11-12T11:19:32;95825.16;;;9.36;86.59
6425;BME280;12193;42.642;23.384;2022-11-12T11:22:25;95831.78;;;9.55;86.00
6425;BME280;12193;42.642;23.384;2022-11-12T11:25:11;95826.13;;;9.75;85.10
6425;BME280;12193;42.642;23.384;2022-11-12T11:27:52;95816.22;;;9.87;85.56
6425;BME280;12193;42.642;23.384;2022-11-12T11:30:26;95825.47;;;9.97;84.54
6425;BME280;12193;42.642;23.384;2022-11-12T11:36:04;95819.63;;;9.87;83.89
6425;BME280;12193;42.642;23.384;2022-11-12T11:38:51;95830.19;;;9.62;85.53
6425;BME280;12193;42.642;23.384;2022-11-12T11:41:36;95826.78;;;9.77;85.09
6425;BME280;12193;42.642;23.384;2022-11-12T11:44:17;95821.91;;;9.66;84.72
6425;BME280;12193;42.642;23.384;2022-11-12T11:47:02;95823.19;;;9.94;83.79
6425;BME280;12193;42.642;23.384;2022-11-12T11:49:56;95818.31;;;9.91;84.35
6425;BME280;12193;42.642;23.384;2022-11-12T11:52:46;95820.09;;;9.91;84.23
6425;BME280;12193;42.642;23.384;2022-11-12T11:55:37;95815.06;;;9.81;84.79
6425;BME280;12193;42.642;23.384;2022-11-12T11:58:26;95818.16;;;9.85;84.36
6425;BME280;12193;42.642;23.384;2022-11-12T12:01:05;95811.16;;;9.93;84.38
6425;BME280;12193;42.642;23.384;2022-11-12T12:03:45;95811.81;;;9.95;83.98
6425;BME280;12193;42.642;23.384;2022-11-12T12:06:22;95815.41;;;9.94;83.19
6425;BME280;12193;42.642;23.384;2022-11-12T12:09:01;95815.38;;;10.02;83.13
6425;BME280;12193;42.642;23.384;2022-11-12T12:11:41;95809.69;;;10.15;82.28
6425;BME280;12193;42.642;23.384;2022-11-12T12:14:27;95794.41;;;10.20;81.28
6425;BME280;12193;42.642;23.384;2022-11-12T12:17:05;95792.78;;;10.27;81.57
6425;BME280;12193;42.642;23.384;2022-11-12T12:19:48;95793.44;;;10.21;81.60
6425;BME280;12193;42.642;23.384;2022-11-12T12:22:23;95805.72;;;10.34;81.17
6425;BME280;12193;42.642;23.384;2022-11-12T12:24:56;95800.41;;;10.20;81.72
6425;BME280;12193;42.642;23.384;2022-11-12T12:27:33;95809.22;;;10.19;81.88
6425;BME280;12193;42.642;23.384;2022-11-12T12:30:06;95796.06;;;10.13;82.57
6425;BME280;12193;42.642;23.384;2022-11-12T12:32:45;95800.53;;;10.34;81.75
6425;BME280;12193;42.642;23.384;2022-11-12T12:35:23;95805.84;;;10.49;81.17
6425;BME280;12193;42.642;23.384;2022-11-12T12:38:01;95804.88;;;10.50;81.31
6425;BME280;12193;42.642;23.384;2022-11-12T12:40:38;95808.25;;;10.04;83.02
6425;BME280;12193;42.642;23.384;2022-11-12T12:43:18;95803.56;;;9.60;85.37
6425;BME280;12193;42.642;23.384;2022-11-12T12:45:50;95813.13;;;9.27;88.16
6425;BME280;12193;42.642;23.384;2022-11-12T12:48:22;95816.16;;;9.07;91.65
6425;BME280;12193;42.642;23.384;2022-11-12T12:50:53;95811.47;;;9.03;92.17
6425;BME280;12193;42.642;23.384;2022-11-12T12:53:41;95816.31;;;9.06;94.05
6425;BME280;12193;42.642;23.384;2022-11-12T12:59:20;95813.56;;;8.99;95.16
6425;BME280;12193;42.642;23.384;2022-11-12T13:01:56;95818.56;;;8.85;96.37
6425;BME280;12193;42.642;23.384;2022-11-12T13:04:50;95813.69;;;8.82;98.15
6425;BME280;12193;42.642;23.384;2022-11-12T13:07:37;95816.56;;;8.79;99.07
6425;BME280;12193;42.642;23.384;2022-11-12T13:13:29;95823.69;;;8.77;100.00
6425;BME280;12193;42.642;23.384;2022-11-12T13:16:02;95823.50;;;8.62;100.00
6425;BME280;12193;42.642;23.384;2022-11-12T13:18:56;95829.91;;;8.50;100.00
6425;BME280;12193;42.642;23.384;2022-11-12T13:21:28;95828.59;;;8.38;100.00
6425;BME280;12193;42.642;23.384;2022-11-12T13:23:58;95829.91;;;8.42;100.00
6425;BME280;12193;42.642;23.384;2022-11-12T13:26:50;95828.09;;;8.43;100.00
6425;BME280;12193;42.642;23.384;2022-11-12T13:29:44;95831.66;;;8.42;100.00
6425;BME280;12193;42.642;23.384;2022-11-12T13:32:27;95829.25;;;8.40;100.00
6425;BME280;12193;42.642;23.384;2022-11-12T13:35:14;95840.75;;;8.46;100.00
6425;BME280;12193;42.642;23.384;2022-11-12T13:37:49;95833.00;;;8.46;100.00
6425;BME280;12193;42.642;23.384;2022-11-12T13:40:32;95831.00;;;8.40;100.00
6425;BME280;12193;42.642;23.384;2022-11-12T13:43:09;95834.53;;;8.31;100.00
6425;BME280;12193;42.642;23.384;2022-11-12T13:45:45;95840.31;;;8.25;100.00
6425;BME280;12193;42.642;23.384;2022-11-12T13:48:22;95835.81;;;8.27;100.00
6425;BME280;12193;42.642;23.384;2022-11-12T13:50:54;95829.81;;;8.26;100.00
6425;BME280;12193;42.642;23.384;2022-11-12T13:53:27;95827.84;;;8.21;100.00
6425;BME280;12193;42.642;23.384;2022-11-12T13:55:57;95830.56;;;8.19;100.00
6425;BME280;12193;42.642;23.384;2022-11-12T13:58:28;95831.72;;;8.17;100.00
6425;BME280;12193;42.642;23.384;2022-11-12T14:00:59;95821.53;;;8.23;100.00
6425;BME280;12193;42.642;23.384;2022-11-12T14:03:40;95828.50;;;8.23;100.00
6425;BME280;12193;42.642;23.384;2022-11-12T14:06:15;95819.31;;;8.36;100.00
6425;BME280;12193;42.642;23.384;2022-11-12T14:08:58;95834.56;;;8.39;100.00
6425;BME280;12193;42.642;23.384;2022-11-12T14:14:37;95828.59;;;8.38;100.00
6425;BME280;12193;42.642;23.384;2022-11-12T14:17:19;95821.13;;;8.35;100.00
6425;BME280;12193;42.642;23.384;2022-11-12T14:20:22;95820.00;;;8.38;100.00
6425;BME280;12193;42.642;23.384;2022-11-12T14:22:54;95817.41;;;8.38;100.00
6425;BME280;12193;42.642;23.384;2022-11-12T14:25:25;95813.03;;;8.38;100.00
6425;BME280;12193;42.642;23.384;2022-11-12T14:27:55;95818.69;;;8.34;100.00
6425;BME280;12193;42.642;23.384;2022-11-12T14:30:26;95825.69;;;8.41;100.00
6425;BME280;12193;42.642;23.384;2022-11-12T14:32:59;95830.41;;;8.46;100.00
6425;BME280;12193;42.642;23.384;2022-11-12T14:35:35;95835.53;;;8.38;100.00
6425;BME280;12193;42.642;23.384;2022-11-12T14:38:11;95831.06;;;8.48;100.00
6425;BME280;12193;42.642;23.384;2022-11-12T14:40:46;95828.41;;;8.40;100.00
6425;BME280;12193;42.642;23.384;2022-11-12T14:43:20;95829.59;;;8.45;100.00
6425;BME280;12193;42.642;23.384;2022-11-12T14:45:52;95825.53;;;8.43;100.00
6425;BME280;12193;42.642;23.384;2022-11-12T14:48:22;95816.09;;;8.34;100.00
6425;BME280;12193;42.642;23.384;2022-11-12T14:50:57;95809.44;;;8.31;100.00
6425;BME280;12193;42.642;23.384;2022-11-12T14:53:31;95822.25;;;8.33;100.00
6425;BME280;12193;42.642;23.384;2022-11-12T14:56:06;95826.13;;;8.37;100.00
6425;BME280;12193;42.642;23.384;2022-11-12T14:58:38;95822.75;;;8.36;100.00
6425;BME280;12193;42.642;23.384;2022-11-12T15:01:26;95822.69;;;8.28;100.00
6425;BME280;12193;42.642;23.384;2022-11-12T15:04:17;95824.97;;;8.24;100.00
6425;BME280;12193;42.642;23.384;2022-11-12T15:06:55;95829.38;;;8.31;100.00
6425;BME280;12193;42.642;23.384;2022-11-12T15:09:33;95826.91;;;8.29;100.00
6425;BME280;12193;42.642;23.384;2022-11-12T15:12:04;95822.28;;;8.16;100.00
6425;BME280;12193;42.642;23.384;2022-11-12T15:14:35;95814.25;;;8.01;100.00
6425;BME280;12193;42.642;23.384;2022-11-12T15:17:04;95821.06;;;8.02;100.00
6425;BME280;12193;42.642;23.384;2022-11-12T15:19:34;95816.84;;;8.01;100.00
6425;BME280;12193;42.642;23.384;2022-11-12T15:22:17;95821.66;;;7.96;100.00
6425;BME280;12193;42.642;23.384;2022-11-12T15:24:47;95825.94;;;8.05;100.00
6425;BME280;12193;42.642;23.384;2022-11-12T15:27:35;95817.28;;;8.14;100.00
6425;BME280;12193;42.642;23.384;2022-11-12T15:30:14;95826.59;;;8.25;100.00
6425;BME280;12193;42.642;23.384;2022-11-12T15:32:44;95817.38;;;8.30;100.00
6425;BME280;12193;42.642;23.384;2022-11-12T15:35:31;95815.94;;;8.35;100.00
6425;BME280;12193;42.642;23.384;2022-11-12T15:38:06;95828.41;;;8.40;100.00
6425;BME280;12193;42.642;23.384;2022-11-12T15:40:41;95823.88;;;8.34;100.00
6425;BME280;12193;42.642;23.384;2022-11-12T15:43:16;95821.78;;;8.37;100.00
6425;BME280;12193;42.642;23.384;2022-11-12T15:45:49;95825.53;;;8.43;100.00
6425;BME280;12193;42.642;23.384;2022-11-12T15:48:20;95830.41;;;8.46;100.00
6425;BME280;12193;42.642;23.384;2022-11-12T15:50:49;95821.50;;;8.48;100.00
6425;BME280;12193;42.642;23.384;2022-11-12T15:53:21;95831.19;;;8.46;100.00
6425;BME280;12193;42.642;23.384;2022-11-12T15:55:51;95829.56;;;8.37;100.00
6425;BME280;12193;42.642;23.384;2022-11-12T15:58:28;95828.41;;;8.40;100.00
6425;BME280;12193;42.642;23.384;2022-11-12T16:00:59;95838.13;;;8.38;100.00
6425;BME280;12193;42.642;23.384;2022-11-12T16:03:28;95850.56;;;8.34;100.00
6425;BME280;12193;42.642;23.384;2022-11-12T16:05:57;95853.47;;;8.31;100.00
6425;BME280;12193;42.642;23.384;2022-11-12T16:08:29;95847.22;;;8.42;100.00
6425;BME280;12193;42.642;23.384;2022-11-12T16:10:59;95847.53;;;8.39;100.00
6425;BME280;12193;42.642;23.384;2022-11-12T16:13:30;95848.69;;;8.44;100.00
6425;BME280;12193;42.642;23.384;2022-11-12T16:16:03;95845.44;;;8.42;100.00
6425;BME280;12193;42.642;23.384;2022-11-12T16:18:34;95845.75;;;8.39;100.00
6425;BME280;12193;42.642;23.384;2022-11-12T16:21:04;95845.78;;;8.47;100.00
6425;BME280;12193;42.642;23.384;2022-11-12T16:23:36;95849.25;;;8.56;100.00
6425;BME280;12193;42.642;23.384;2022-11-12T16:26:07;95845.81;;;8.55;100.00
6425;BME280;12193;42.642;23.384;2022-11-12T16:28:37;95831.25;;;8.54;100.00
6425;BME280;12193;42.642;23.384;2022-11-12T16:31:06;95846.44;;;8.49;100.00
6425;BME280;12193;42.642;23.384;2022-11-12T16:33:35;95841.56;;;8.46;100.00
6425;BME280;12193;42.642;23.384;2022-11-12T16:36:11;95841.56;;;8.46;100.00
6425;BME280;12193;42.642;23.384;2022-11-12T16:38:44;95842.69;;;8.44;100.00
6425;BME280;12193;42.642;23.384;2022-11-12T16:41:14;95836.34;;;8.38;100.00
6425;BME280;12193;42.642;23.384;2022-11-12T16:43:43;95837.97;;;8.39;100.00
6425;BME280;12193;42.642;23.384;2022-11-12T16:46:17;95840.03;;;8.36;100.00
6425;BME280;12193;42.642;23.384;2022-11-12T16:48:48;95834.97;;;8.19;100.00
6425;BME280;12193;42.642;23.384;2022-11-12T16:51:19;95827.06;;;8.28;100.00
6425;BME280;12193;42.642;23.384;2022-11-12T16:53:51;95825.75;;;8.24;100.00